Time;durP1;ratioP1;P1;durP2;ratioP2;P2;SDS_P1;SDS_P2;PMS_P1;PMS_P2;Temp;Humidity;BMP_temperature;BMP_pressure;BME280_temperature;BME280_humidity;BME280_pressure;Samples;Min_cycle;Max_cycle;Signal;HPM_P1;HPM_P2
2021/01/18 00:00:58;;;;;;;80.70;32.47;;;;;;;-10.22;74.57;99569.42;119088;1151;65044;-84
2021/01/18 00:03:25;;;;;;;82.27;33.50;;;;;;;-10.21;73.97;99566.90;119114;1151;65239;-84
2021/01/18 00:05:52;;;;;;;87.03;38.10;;;;;;;-10.23;74.69;99563.41;119099;1150;65146;-84
2021/01/18 00:08:18;;;;;;;78.85;34.50;;;;;;;-10.23;74.71;99559.95;119079;1150;65136;-84
2021/01/18 00:10:45;;;;;;;65.57;28.13;;;;;;;-10.21;74.79;99569.47;119306;1151;65117;-84
2021/01/18 00:13:11;;;;;;;81.83;35.70;;;;;;;-10.24;74.55;99571.08;119306;1151;65124;-84
2021/01/18 00:15:38;;;;;;;90.53;40.67;;;;;;;-10.27;74.07;99561.56;119089;1151;65194;-84
2021/01/18 00:18:04;;;;;;;94.27;37.37;;;;;;;-10.24;74.84;99558.20;118614;1150;65166;-85
2021/01/18 00:20:31;;;;;;;102.20;42.33;;;;;;;-10.28;74.01;99562.45;118647;1151;65121;-84
2021/01/18 00:22:57;;;;;;;105.55;41.95;;;;;;;-10.27;74.79;99566.72;118986;1151;65117;-84
2021/01/18 00:25:25;;;;;;;96.20;40.27;;;;;;;-10.29;74.41;99558.14;119083;1151;65155;-85
2021/01/18 00:27:52;;;;;;;102.57;44.60;;;;;;;-10.29;74.54;99559.81;119268;1150;65626;-84
2021/01/18 00:30:24;;;;;;;97.70;41.53;;;;;;;-10.29;74.75;99570.12;119275;1150;65114;-84
2021/01/18 00:32:51;;;;;;;92.85;36.45;;;;;;;-10.32;74.83;99560.64;119091;1151;65276;-86
2021/01/18 00:35:19;;;;;;;78.33;32.70;;;;;;;-10.33;74.24;99568.31;119304;1151;65046;-84
2021/01/18 00:37:51;;;;;;;81.20;31.70;;;;;;;-10.34;74.43;99562.30;119302;1150;65133;-84
2021/01/18 00:40:20;;;;;;;88.13;38.90;;;;;;;-10.35;74.74;99565.69;119255;1150;65197;-83
2021/01/18 00:42:47;;;;;;;100.38;42.98;;;;;;;-10.33;74.53;99568.31;119290;1151;65472;-84
2021/01/18 00:45:17;;;;;;;98.40;41.13;;;;;;;-10.32;74.55;99567.47;118497;1151;65194;-86
2021/01/18 00:47:45;;;;;;;88.60;37.25;;;;;;;-10.34;75.15;99566.59;118770;1151;65135;-85
2021/01/18 00:50:14;;;;;;;92.03;40.77;;;;;;;-10.33;75.04;99576.05;118747;1151;65629;-84
2021/01/18 00:52:42;;;;;;;97.70;38.63;;;;;;;-10.27;74.76;99571.04;118615;1150;65242;-84
2021/01/18 00:55:14;;;;;;;97.20;38.97;;;;;;;-10.21;75.42;99576.34;118978;1150;65227;-84
2021/01/18 00:57:41;;;;;;;82.83;35.37;;;;;;;-10.19;75.00;99575.55;119318;1150;65117;-84
2021/01/18 01:00:10;;;;;;;86.70;40.23;;;;;;;-10.20;75.03;99575.49;118616;1151;65219;-84
2021/01/18 01:02:38;;;;;;;;;;;;;;;-10.20;74.69;99578.06;118943;1150;65101;-84
2021/01/18 01:05:06;;;;;;;86.55;37.45;;;;;;;-10.19;75.16;99578.12;119040;1151;65274;-85
2021/01/18 01:07:54;;;;;;;81.63;34.00;;;;;;;-10.16;74.12;99574.75;119065;1150;65152;-86
2021/01/18 01:10:23;;;;;;;78.67;32.03;;;;;;;-10.27;75.06;99571.88;119287;1151;65132;-85
2021/01/18 01:13:01;;;;;;;77.27;35.50;;;;;;;-10.29;73.99;99571.02;119319;1150;65133;-84
2021/01/18 01:15:29;;;;;;;97.87;39.40;;;;;;;-10.33;74.91;99563.16;119332;1150;65118;-83
2021/01/18 01:17:56;;;;;;;92.47;39.87;;;;;;;-10.33;74.82;99565.73;118776;1150;65060;-86
2021/01/18 01:20:23;;;;;;;99.43;42.20;;;;;;;-10.28;74.42;99570.17;119150;1150;65032;-84
2021/01/18 01:22:51;;;;;;;90.40;38.93;;;;;;;-10.23;75.00;99570.27;118910;1151;65079;-84
2021/01/18 01:25:20;;;;;;;93.90;39.00;;;;;;;-10.18;74.37;99572.13;118726;1151;65166;-86
2021/01/18 01:27:47;;;;;;;87.53;35.75;;;;;;;-10.18;74.24;99573.83;119136;1151;65120;-84
2021/01/18 01:30:16;;;;;;;85.40;38.87;;;;;;;-10.18;75.02;99566.10;119059;1151;65163;-85
2021/01/18 01:32:47;;;;;;;97.00;38.00;;;;;;;-10.19;73.93;99572.97;118640;1151;65146;-84
2021/01/18 01:35:15;;;;;;;85.27;37.10;;;;;;;-10.18;74.78;99564.39;119343;1150;65124;-84
2021/01/18 01:37:42;;;;;;;97.77;41.10;;;;;;;-10.19;74.63;99570.39;119084;1150;65105;-84
2021/01/18 01:40:11;;;;;;;91.10;40.05;;;;;;;-10.18;74.57;99569.55;118742;1150;65124;-85
2021/01/18 01:42:38;;;;;;;91.83;37.47;;;;;;;-10.12;74.81;99567.95;118953;1151;65140;-86
2021/01/18 01:45:07;;;;;;;98.40;41.73;;;;;;;-10.07;74.25;99561.20;119090;1150;65193;-85
2021/01/18 01:47:55;;;;;;;91.50;39.50;;;;;;;-10.02;74.33;99559.62;119092;1151;65165;-85
2021/01/18 01:50:27;;;;;;;83.33;37.50;;;;;;;-10.04;74.33;99559.56;119200;1150;65114;-84
2021/01/18 01:53:20;;;;;;;84.67;37.20;;;;;;;-10.06;74.36;99556.07;119105;1150;65136;-84
2021/01/18 01:55:48;;;;;;;88.27;36.93;;;;;;;-10.09;74.21;99561.16;119191;1151;65187;-84
2021/01/18 01:58:16;;;;;;;88.00;37.45;;;;;;;-10.16;73.90;99565.31;118896;1151;65217;-86
2021/01/18 02:00:43;;;;;;;91.50;36.35;;;;;;;-10.18;74.45;99561.81;118742;1150;65101;-85
2021/01/18 02:03:21;;;;;;;93.43;39.07;;;;;;;-10.16;74.23;99556.70;118523;1151;65082;-85
2021/01/18 02:05:49;;;;;;;94.17;42.13;;;;;;;-10.17;74.57;99554.95;118707;1151;65050;-85
2021/01/18 02:08:15;;;;;;;85.00;36.05;;;;;;;-10.19;74.49;99557.50;118482;1151;65247;-84
2021/01/18 02:10:42;;;;;;;98.27;40.63;;;;;;;-10.19;74.76;99554.92;118487;1151;65164;-84
2021/01/18 02:13:32;;;;;;;93.70;42.83;;;;;;;-10.16;74.85;99561.87;118571;1151;65195;-85
2021/01/18 02:16:05;;;;;;;97.33;41.50;;;;;;;-10.10;74.90;99567.16;118705;1150;65128;-84
2021/01/18 02:19:09;;;;;;;92.30;42.37;;;;;;;-10.10;74.44;99564.58;118757;1151;65152;-84
2021/01/18 02:22:23;;;;;;;90.43;37.50;;;;;;;-10.15;74.86;99563.59;119275;1150;65275;-84
2021/01/18 02:25:00;;;;;;;90.85;41.75;;;;;;;-10.12;74.33;99566.24;119301;1151;65179;-87
2021/01/18 02:28:03;;;;;;;98.25;40.50;;;;;;;-10.10;74.08;99558.56;119150;1151;65124;-85
2021/01/18 02:30:58;;;;;;;92.07;40.03;;;;;;;-10.07;74.14;99561.20;119322;1151;65124;-84
2021/01/18 02:33:55;;;;;;;94.53;41.23;;;;;;;-10.05;74.21;99562.12;119289;1150;65201;-85
2021/01/18 02:36:43;;;;;;;93.90;40.03;;;;;;;-10.02;74.74;99555.33;119288;1150;65124;-84
2021/01/18 02:39:24;;;;;;;93.37;42.67;;;;;;;-9.98;74.73;99558.84;119359;1150;65129;-84
2021/01/18 02:42:07;;;;;;;92.83;39.63;;;;;;;-10.04;74.80;99553.55;119283;1150;65195;-84
2021/01/18 02:44:38;;;;;;;89.53;39.33;;;;;;;-10.09;74.65;99545.70;119058;1151;65191;-86
2021/01/18 02:47:06;;;;;;;91.30;40.50;;;;;;;-10.12;74.36;99553.36;118928;1151;65115;-86
2021/01/18 02:49:33;;;;;;;86.67;40.37;;;;;;;-10.05;74.29;99552.68;118795;1151;65075;-86
2021/01/18 02:52:09;;;;;;;86.20;39.30;;;;;;;-10.06;74.44;99543.19;118524;1151;65188;-85
2021/01/18 02:54:35;;;;;;;77.93;33.80;;;;;;;-10.10;74.96;99545.67;118984;1150;65150;-85
2021/01/18 02:57:05;;;;;;;89.23;38.93;;;;;;;-10.09;74.90;99556.00;118767;1150;65573;-84
2021/01/18 02:59:32;;;;;;;78.33;36.10;;;;;;;-10.05;75.04;99549.23;119172;1150;65116;-84
2021/01/18 03:02:02;;;;;;;81.07;34.63;;;;;;;-10.06;74.04;99555.20;119170;1151;65180;-84
2021/01/18 03:04:56;;;;;;;76.43;33.37;;;;;;;-10.03;75.12;99548.44;118813;1151;65008;-84
2021/01/18 03:07:56;;;;;;;69.30;29.00;;;;;;;-10.03;74.50;99545.86;118559;1150;65226;-84
2021/01/18 03:10:26;;;;;;;69.65;31.97;;;;;;;-10.03;73.86;99543.28;118799;1150;65127;-84
2021/01/18 03:13:02;;;;;;;61.83;27.83;;;;;;;-10.04;74.17;99548.39;118971;1151;65097;-84
2021/01/18 03:15:36;;;;;;;64.77;29.33;;;;;;;-10.14;73.99;99547.28;119028;1151;65248;-84
2021/01/18 03:18:06;;;;;;;66.40;31.37;;;;;;;-10.19;74.78;99552.35;119288;1150;65088;-85
2021/01/18 03:20:33;;;;;;;70.72;31.97;;;;;;;-10.23;74.49;99553.09;119326;1150;65635;-84
2021/01/18 03:23:09;;;;;;;78.87;32.10;;;;;;;-10.28;74.25;99546.98;119340;1150;65057;-85
2021/01/18 03:25:54;;;;;;;74.27;34.90;;;;;;;-10.28;74.55;99540.97;119098;1151;65211;-85
2021/01/18 03:28:22;;;;;;;83.13;33.80;;;;;;;-10.37;73.79;99546.77;119297;1150;65273;-85
2021/01/18 03:30:49;;;;;;;82.00;36.13;;;;;;;-10.38;73.81;99542.43;119068;1150;65519;-85
2021/01/18 03:33:17;;;;;;;76.57;31.80;;;;;;;-10.45;73.97;99546.57;119314;1150;65114;-84
2021/01/18 03:35:44;;;;;;;84.30;33.77;;;;;;;-10.52;74.04;99538.64;119315;1151;65150;-84
2021/01/18 03:38:10;;;;;;;83.53;35.80;;;;;;;-10.64;74.14;99547.77;119084;1151;65105;-84
2021/01/18 03:40:37;;;;;;;77.00;33.30;;;;;;;-10.73;74.79;99546.67;119027;1150;65079;-83
2021/01/18 03:43:09;;;;;;;83.33;37.07;;;;;;;-10.81;74.42;99545.59;119021;1151;65207;-84
2021/01/18 03:45:40;;;;;;;77.57;35.50;;;;;;;-10.92;74.42;99556.47;119118;1151;65117;-86
2021/01/18 03:48:08;;;;;;;84.85;34.70;;;;;;;-11.00;73.86;99552.81;119094;1151;65110;-85
2021/01/18 03:50:36;;;;;;;83.23;35.90;;;;;;;-11.06;75.00;99553.52;119332;1150;65184;-85
2021/01/18 03:53:03;;;;;;;75.57;33.17;;;;;;;-11.02;74.66;99549.32;119286;1151;65168;-85
2021/01/18 03:55:30;;;;;;;78.53;35.00;;;;;;;-11.12;74.86;99542.17;119071;1151;65050;-85
2021/01/18 03:57:57;;;;;;;77.43;34.10;;;;;;;-11.24;74.16;99542.70;118821;1151;65218;-85
2021/01/18 04:00:26;;;;;;;83.57;36.33;;;;;;;-11.32;74.55;99536.44;119346;1151;65047;-85
2021/01/18 04:02:53;;;;;;;69.07;31.00;;;;;;;-11.40;73.84;99548.20;119071;1151;65101;-84
2021/01/18 04:05:21;;;;;;;75.13;34.87;;;;;;;-11.54;73.79;99543.53;119255;1151;65284;-84
2021/01/18 04:07:49;;;;;;;76.40;33.63;;;;;;;-11.67;73.76;99543.13;119333;1151;65127;-84
2021/01/18 04:10:18;;;;;;;84.27;36.87;;;;;;;-11.81;74.05;99545.28;118995;1150;65132;-84
2021/01/18 04:12:46;;;;;;;74.53;34.70;;;;;;;-11.93;73.75;99538.08;119150;1151;65279;-84
2021/01/18 04:15:15;;;;;;;76.07;35.27;;;;;;;-12.00;74.24;99539.59;119130;1151;65298;-84
2021/01/18 04:17:43;;;;;;;75.07;36.20;;;;;;;-12.06;73.51;99530.80;119386;1150;65072;-85
2021/01/18 04:20:11;;;;;;;78.67;35.97;;;;;;;-12.12;73.99;99536.63;119129;1150;65213;-84
2021/01/18 04:22:45;;;;;;;81.13;36.67;;;;;;;-12.19;73.34;99532.11;119086;1150;65633;-85
2021/01/18 04:25:14;;;;;;;82.53;37.50;;;;;;;-12.22;74.62;99532.02;119350;1151;65156;-84
2021/01/18 04:27:49;;;;;;;78.45;36.38;;;;;;;-12.26;74.47;99535.33;119322;1151;65072;-84
2021/01/18 04:30:18;;;;;;;74.33;34.83;;;;;;;-12.31;74.06;99531.73;119120;1151;65133;-84
2021/01/18 04:33:14;;;;;;;80.75;36.90;;;;;;;-12.32;73.92;99530.87;119124;1151;65124;-83
2021/01/18 04:35:40;;;;;;;83.23;36.90;;;;;;;-12.32;74.28;99547.95;119243;1150;65121;-85
2021/01/18 04:38:07;;;;;;;80.30;36.55;;;;;;;-12.33;74.08;99543.64;118574;1150;65123;-84
2021/01/18 04:40:35;;;;;;;81.73;37.30;;;;;;;-12.36;74.11;99546.11;119032;1151;65147;-84
2021/01/18 04:43:03;;;;;;;79.20;36.93;;;;;;;-12.43;73.77;99540.75;119080;1151;65193;-84
2021/01/18 04:45:31;;;;;;;78.90;36.60;;;;;;;-12.49;73.50;99543.13;119156;1151;65114;-84
2021/01/18 04:47:59;;;;;;;77.20;36.00;;;;;;;-12.53;73.65;99546.44;119054;1151;65110;-84
2021/01/18 04:50:28;;;;;;;77.73;34.73;;;;;;;-12.60;73.57;99537.64;119323;1150;65459;-87
2021/01/18 04:52:59;;;;;;;83.62;37.55;;;;;;;-12.73;73.57;99538.04;119409;1151;65120;-85
2021/01/18 04:55:32;;;;;;;81.63;36.93;;;;;;;-12.85;73.03;99537.61;119321;1150;65143;-85
2021/01/18 04:58:11;;;;;;;81.73;35.67;;;;;;;-12.98;73.38;99538.86;119071;1151;65295;-84
2021/01/18 05:00:51;;;;;;;94.25;40.15;;;;;;;-13.06;72.88;99540.29;119303;1150;65124;-84
2021/01/18 05:03:24;;;;;;;94.03;41.80;;;;;;;-13.12;73.35;99545.21;119052;1151;65108;-85
2021/01/18 05:05:52;;;;;;;89.95;38.90;;;;;;;-13.22;73.07;99549.13;119339;1150;65120;-83
2021/01/18 05:08:21;;;;;;;84.40;40.13;;;;;;;-13.29;72.87;99550.64;119029;1148;65613;-84
2021/01/18 05:10:50;;;;;;;86.57;40.13;;;;;;;-13.36;72.76;99546.09;119316;1151;65123;-84
2021/01/18 05:13:19;;;;;;;84.62;36.50;;;;;;;-13.41;72.79;99539.05;119104;1151;65237;-84
2021/01/18 05:15:48;;;;;;;89.07;41.23;;;;;;;-13.43;73.47;99546.67;119090;1151;65219;-86
2021/01/18 05:18:15;;;;;;;89.90;40.40;;;;;;;-13.46;72.74;99550.83;119331;1150;65117;-84
2021/01/18 05:20:41;;;;;;;87.25;40.95;;;;;;;-13.48;72.71;99553.32;119289;1150;65219;-84
2021/01/18 05:23:07;;;;;;;95.00;41.50;;;;;;;-13.47;73.45;99549.09;119327;1151;65120;-86
2021/01/18 05:25:35;;;;;;;89.17;40.17;;;;;;;-13.58;72.76;99548.70;119034;1151;65235;-86
2021/01/18 05:28:08;;;;;;;97.77;44.40;;;;;;;-13.65;72.85;99544.14;118841;1151;65111;-84
2021/01/18 05:30:37;;;;;;;107.97;49.20;;;;;;;-13.59;73.49;99550.36;118939;1151;65210;-83
2021/01/18 05:33:14;;;;;;;104.70;50.12;;;;;;;-13.56;72.89;99547.03;119318;1150;65094;-84
2021/01/18 05:35:47;;;;;;;95.45;48.65;;;;;;;-13.60;73.29;99550.31;118961;1151;65175;-84
2021/01/18 05:38:14;;;;;;;95.90;48.93;;;;;;;-13.65;72.63;99556.95;118849;1150;65132;-84
2021/01/18 05:40:45;;;;;;;95.70;45.20;;;;;;;-13.68;72.76;99557.70;118824;1151;65141;-84
2021/01/18 05:43:14;;;;;;;95.10;46.47;;;;;;;-13.73;73.46;99554.97;119101;1151;65223;-84
2021/01/18 05:45:45;;;;;;;87.80;39.95;;;;;;;-13.77;73.34;99554.78;119350;1150;65127;-84
2021/01/18 05:48:24;;;;;;;107.40;44.73;;;;;;;-13.83;72.32;99554.55;119090;1150;65127;-84
2021/01/18 05:51:00;;;;;;;97.97;46.80;;;;;;;-13.92;73.01;99561.89;119234;1151;65153;-81
2021/01/18 05:53:28;;;;;;;116.47;49.53;;;;;;;-13.98;73.44;99562.50;119281;1150;65129;-85
2021/01/18 05:55:55;;;;;;;112.35;48.60;;;;;;;-14.02;72.50;99566.63;118748;1151;65129;-84
2021/01/18 05:58:32;;;;;;;123.53;52.87;;;;;;;-14.06;72.45;99559.63;118986;1151;65255;-84
2021/01/18 06:01:00;;;;;;;115.90;52.47;;;;;;;-14.09;72.68;99561.20;119056;1151;65210;-84
2021/01/18 06:03:29;;;;;;;128.60;57.57;;;;;;;-14.10;72.80;99570.58;119220;1151;65141;-84
2021/01/18 06:05:57;;;;;;;135.40;62.07;;;;;;;-14.12;72.87;99572.20;119268;1150;65104;-84
2021/01/18 06:08:25;;;;;;;152.50;66.47;;;;;;;-14.16;72.65;99572.91;119312;1150;65137;-82
2021/01/18 06:10:54;;;;;;;161.83;68.20;;;;;;;-14.20;72.67;99564.20;118940;1150;65217;-81
2021/01/18 06:13:27;;;;;;;152.43;71.10;;;;;;;-14.22;72.58;99564.95;118995;1150;65284;-83
2021/01/18 06:16:03;;;;;;;160.73;69.13;;;;;;;-14.27;72.22;99574.13;118832;1151;65114;-85
2021/01/18 06:18:30;;;;;;;162.70;74.00;;;;;;;-14.35;72.42;99562.71;119148;1150;65083;-83
2021/01/18 06:21:00;;;;;;;158.50;74.50;;;;;;;-14.38;72.76;99566.88;118995;1150;65137;-84
2021/01/18 06:23:27;;;;;;;;;;;;;;;-14.33;73.09;99564.52;119424;1151;65122;-85
2021/01/18 06:25:55;;;;;;;146.80;70.53;;;;;;;-14.35;72.50;99560.16;120405;1151;65031;-84
2021/01/18 06:28:36;;;;;;;164.87;76.50;;;;;;;-14.33;72.74;99555.98;119770;1151;65097;-84
2021/01/18 06:31:08;;;;;;;151.87;67.93;;;;;;;-14.33;72.63;99567.08;119840;1151;65134;-84
2021/01/18 06:33:45;;;;;;;148.50;68.70;;;;;;;-14.38;71.82;99558.34;119524;1150;65043;-84
2021/01/18 06:36:20;;;;;;;171.30;79.17;;;;;;;-14.46;71.95;99565.70;119106;1151;65203;-85
2021/01/18 06:38:59;;;;;;;168.40;74.47;;;;;;;-14.49;72.62;99563.02;119339;1150;65114;-88
2021/01/18 06:41:33;;;;;;;175.57;78.07;;;;;;;-14.51;72.64;99564.63;119375;1150;65124;-89
2021/01/18 06:44:00;;;;;;;178.63;82.77;;;;;;;-14.53;71.93;99573.98;119296;1150;65066;-85
2021/01/18 06:46:32;;;;;;;169.50;76.80;;;;;;;-14.56;71.63;99571.27;118985;1151;65185;-89
2021/01/18 06:49:00;;;;;;;170.80;76.97;;;;;;;-14.58;71.81;99572.92;119230;1150;65108;-86
2021/01/18 06:51:28;;;;;;;179.63;78.20;;;;;;;-14.57;71.78;99578.91;119144;1150;65196;-86
2021/01/18 06:53:58;;;;;;;155.43;70.10;;;;;;;-14.62;71.16;99577.02;119403;1150;65129;-84
2021/01/18 06:56:54;;;;;;;172.75;74.80;;;;;;;-14.62;71.54;99586.38;119116;1151;65231;-85
2021/01/18 06:59:52;;;;;;;162.45;74.50;;;;;;;-14.62;71.71;99588.94;119117;1151;65111;-86
2021/01/18 07:02:26;;;;;;;173.70;75.10;;;;;;;-14.58;71.47;99590.83;119003;1151;65038;-86
2021/01/18 07:05:21;;;;;;;152.10;69.27;;;;;;;-14.55;72.03;99592.64;119360;1150;65143;-85
2021/01/18 07:07:56;;;;;;;134.25;60.30;;;;;;;-14.44;72.12;99588.81;119326;1150;65124;-84
2021/01/18 07:10:22;;;;;;;163.57;75.83;;;;;;;-14.30;72.15;99595.36;118975;1150;65203;-85
2021/01/18 07:12:49;;;;;;;181.93;79.70;;;;;;;-14.09;72.94;99594.49;118930;1150;65043;-86
2021/01/18 07:15:15;;;;;;;194.37;81.07;;;;;;;-13.77;72.71;99591.55;119055;1150;65196;-84
2021/01/18 07:17:52;;;;;;;182.40;82.63;;;;;;;-13.54;72.19;99596.67;119113;1150;65474;-85
2021/01/18 07:20:28;;;;;;;168.23;74.27;;;;;;;-13.61;71.34;99597.23;119299;1151;65123;-85
2021/01/18 07:23:12;;;;;;;163.23;77.23;;;;;;;-13.74;70.90;99598.48;119125;1151;65201;-83
2021/01/18 07:25:45;;;;;;;160.90;68.53;;;;;;;-13.76;70.97;99603.53;119299;1150;65131;-85
2021/01/18 07:28:13;;;;;;;143.60;64.43;;;;;;;-13.85;70.69;99600.59;119065;1150;65361;-85
2021/01/18 07:30:40;;;;;;;146.50;63.57;;;;;;;-13.74;70.92;99607.03;119298;1150;65050;-84
2021/01/18 07:33:14;;;;;;;143.30;64.90;;;;;;;-13.66;71.44;99594.52;118990;1151;65127;-85
2021/01/18 07:35:43;;;;;;;137.10;62.53;;;;;;;-13.58;71.07;99598.25;119129;1151;65114;-85
2021/01/18 07:38:15;;;;;;;124.47;58.83;;;;;;;-13.52;70.70;99593.35;119110;1151;65184;-85
2021/01/18 07:41:07;;;;;;;161.73;70.67;;;;;;;-13.45;71.03;99594.47;119298;1150;65124;-85
2021/01/18 07:43:39;;;;;;;154.03;73.13;;;;;;;-13.36;70.39;99583.69;119191;1151;65153;-86
2021/01/18 07:46:23;;;;;;;166.20;76.00;;;;;;;-13.33;70.52;99591.48;119057;1150;65118;-85
2021/01/18 07:48:57;;;;;;;160.73;72.43;;;;;;;-13.26;70.07;99591.73;119070;1151;65124;-85
2021/01/18 07:51:27;;;;;;;171.85;74.50;;;;;;;-13.16;70.37;99592.06;119067;1151;65284;-85
2021/01/18 07:53:55;;;;;;;171.73;78.20;;;;;;;-13.11;70.13;99593.11;119119;1151;65275;-85
2021/01/18 07:56:25;;;;;;;181.73;80.77;;;;;;;-13.06;70.41;99599.28;119047;1151;65187;-87
2021/01/18 07:58:59;;;;;;;229.77;98.43;;;;;;;-13.02;70.54;99590.90;119028;1151;65192;-85
2021/01/18 08:01:37;;;;;;;243.05;104.40;;;;;;;-12.93;70.39;99595.48;118919;1151;65555;-85
2021/01/18 08:04:21;;;;;;;256.00;108.77;;;;;;;-12.82;70.38;99596.72;119099;1151;65018;-85
2021/01/18 08:07:05;;;;;;;253.03;112.80;;;;;;;-12.73;70.42;99589.37;119124;1151;65289;-85
2021/01/18 08:09:37;;;;;;;251.37;108.23;;;;;;;-12.58;70.52;99590.70;119016;1151;65571;-86
2021/01/18 08:12:30;;;;;;;239.77;112.70;;;;;;;-12.50;70.79;99586.73;118992;1151;65234;-84
2021/01/18 08:15:04;;;;;;;260.00;113.13;;;;;;;-12.41;70.70;99594.73;119085;1151;65104;-87
2021/01/18 08:17:31;;;;;;;254.33;110.43;;;;;;;-12.36;70.65;99603.48;119093;1151;65133;-87
2021/01/18 08:20:12;;;;;;;245.90;111.87;;;;;;;-12.23;70.38;99603.06;118862;1151;65275;-85
2021/01/18 08:22:39;;;;;;;219.90;104.50;;;;;;;-12.08;70.01;99595.00;118737;1151;65126;-85
2021/01/18 08:25:07;;;;;;;196.00;95.50;;;;;;;-12.04;70.09;99603.67;119018;1151;65263;-85
2021/01/18 08:27:47;;;;;;;200.33;92.03;;;;;;;-11.96;70.64;99599.66;119112;1151;65117;-84
2021/01/18 08:30:27;;;;;;;;;;;;;;;-12.00;70.20;99597.83;119052;1151;65102;-82
2021/01/18 08:33:16;;;;;;;184.83;82.53;;;;;;;-12.00;69.86;99598.70;118968;1151;65132;-80
2021/01/18 08:35:49;;;;;;;184.10;82.50;;;;;;;-11.88;70.28;99600.77;119050;1151;65059;-80
2021/01/18 08:38:28;;;;;;;196.47;96.40;;;;;;;-11.81;69.92;99604.39;118579;1151;65130;-81
2021/01/18 08:41:09;;;;;;;219.90;97.05;;;;;;;-11.73;70.43;99610.65;119042;1151;65217;-80
2021/01/18 08:43:49;;;;;;;223.13;101.53;;;;;;;-11.74;70.08;99607.20;119010;1151;65124;-81
2021/01/18 08:46:39;;;;;;;234.00;110.27;;;;;;;-11.68;69.97;99618.52;118993;1151;65236;-81
2021/01/18 08:49:28;;;;;;;260.20;115.27;;;;;;;-11.50;70.49;99619.09;119053;1151;65060;-81
2021/01/18 08:51:56;;;;;;;244.47;113.03;;;;;;;-11.39;69.66;99622.86;119096;1151;65132;-81
2021/01/18 08:54:39;;;;;;;261.50;114.73;;;;;;;-11.26;69.63;99618.95;119070;1151;65146;-80
2021/01/18 08:57:24;;;;;;;240.87;104.63;;;;;;;-11.16;69.57;99615.84;119092;1151;65114;-82
2021/01/18 09:00:10;;;;;;;238.15;107.20;;;;;;;-11.03;70.11;99624.80;119080;1151;65131;-80
2021/01/18 09:02:40;;;;;;;243.55;107.70;;;;;;;-10.96;69.88;99618.97;119044;1151;65150;-80
2021/01/18 09:05:21;;;;;;;248.40;112.00;;;;;;;-10.86;69.74;99607.25;119124;1150;65107;-81
2021/01/18 09:07:49;;;;;;;259.10;114.53;;;;;;;-10.68;70.12;99606.89;119331;1150;65143;-81
2021/01/18 09:10:18;;;;;;;260.87;116.40;;;;;;;-10.64;70.04;99601.84;119351;1150;65129;-80
2021/01/18 09:12:46;;;;;;;254.83;115.87;;;;;;;-10.55;69.72;99602.95;119320;1151;65128;-81
2021/01/18 09:15:15;;;;;;;256.90;113.70;;;;;;;-10.51;69.86;99603.05;119341;1150;65197;-80
2021/01/18 09:17:42;;;;;;;266.12;117.97;;;;;;;-10.40;69.04;99595.61;119316;1150;65203;-81
2021/01/18 09:20:11;;;;;;;265.13;118.07;;;;;;;-10.35;68.71;99585.44;119281;1150;65049;-80
2021/01/18 09:22:39;;;;;;;264.17;119.23;;;;;;;-10.30;69.02;99589.00;119322;1151;65124;-81
2021/01/18 09:25:14;;;;;;;279.33;122.60;;;;;;;-10.21;69.01;99573.77;119295;1151;65207;-81
2021/01/18 09:27:41;;;;;;;295.57;131.73;;;;;;;-10.06;68.81;99576.70;119078;1151;65100;-82
2021/01/18 09:30:17;;;;;;;287.50;128.47;;;;;;;-9.93;69.14;99570.13;119090;1151;65167;-82
2021/01/18 09:32:55;;;;;;;291.20;130.70;;;;;;;-9.84;68.64;99569.50;119059;1151;65100;-82
2021/01/18 09:35:22;;;;;;;299.23;130.27;;;;;;;-9.67;68.76;99549.25;119307;1150;65103;-82
2021/01/18 09:37:50;;;;;;;300.05;134.20;;;;;;;-9.53;68.45;99558.16;119292;1150;65124;-81
2021/01/18 09:40:17;;;;;;;305.10;130.20;;;;;;;-9.33;68.50;99553.45;119333;1151;65127;-80
2021/01/18 09:42:46;;;;;;;309.23;142.90;;;;;;;-9.23;68.78;99554.53;119090;1150;65194;-83
2021/01/18 09:45:14;;;;;;;300.30;137.12;;;;;;;-9.11;68.77;99542.75;119326;1150;65133;-82
2021/01/18 09:47:43;;;;;;;322.27;141.87;;;;;;;-8.92;68.98;99543.98;119365;1150;65130;-80
2021/01/18 09:50:14;;;;;;;303.87;135.77;;;;;;;-8.80;67.85;99542.47;119113;1151;65197;-81
2021/01/18 09:52:42;;;;;;;313.00;138.30;;;;;;;-8.68;68.14;99534.97;119253;1150;65129;-81
2021/01/18 09:55:16;;;;;;;317.83;140.07;;;;;;;-8.56;68.34;99530.00;119337;1150;65197;-81
2021/01/18 09:57:47;;;;;;;320.27;141.73;;;;;;;-8.49;68.00;99537.03;119351;1150;65098;-81
2021/01/18 10:00:15;;;;;;;296.57;132.90;;;;;;;-8.35;67.86;99526.90;119305;1150;65129;-81
2021/01/18 10:02:44;;;;;;;254.63;117.07;;;;;;;-8.36;67.58;99521.72;119235;1150;65147;-83
2021/01/18 10:05:20;;;;;;;250.93;113.80;;;;;;;-8.33;67.15;99524.36;119079;1151;65207;-80
2021/01/18 10:07:51;;;;;;;263.25;119.00;;;;;;;-8.25;67.94;99531.39;119324;1151;65092;-80
2021/01/18 10:10:17;;;;;;;236.40;110.83;;;;;;;-8.14;67.05;99522.94;119066;1151;65140;-82
2021/01/18 10:12:50;;;;;;;158.27;79.17;;;;;;;-8.11;66.74;99523.85;119099;1150;65172;-80
2021/01/18 10:15:27;;;;;;;166.03;78.30;;;;;;;-8.17;66.39;99519.45;119097;1151;65236;-81
2021/01/18 10:17:55;;;;;;;147.90;71.57;;;;;;;-8.10;67.22;99512.68;119346;1151;65090;-81
2021/01/18 10:20:24;;;;;;;147.33;70.23;;;;;;;-7.93;66.99;99519.83;118956;1150;65102;-81
2021/01/18 10:22:51;;;;;;;157.33;72.83;;;;;;;-7.84;66.32;99512.23;118804;1151;65101;-80
2021/01/18 10:25:18;;;;;;;157.25;75.60;;;;;;;-7.82;65.92;99513.99;119286;1151;65101;-81
2021/01/18 10:27:52;;;;;;;154.40;74.97;;;;;;;-7.87;65.84;99518.22;119025;1150;65101;-80
2021/01/18 10:30:37;;;;;;;161.83;75.63;;;;;;;-7.83;66.28;99519.98;118983;1151;66306;-82
2021/01/18 10:33:15;;;;;;;152.70;73.43;;;;;;;-7.76;65.61;99523.56;119311;1151;65229;-81
2021/01/18 10:35:41;;;;;;;146.95;69.60;;;;;;;-7.69;65.47;99515.02;119205;1151;65114;-81
2021/01/18 10:38:20;;;;;;;134.50;67.60;;;;;;;-7.62;65.04;99518.58;119186;1151;65036;-80
2021/01/18 10:41:04;;;;;;;126.40;64.03;;;;;;;-7.57;65.94;99515.20;119290;1150;65129;-81
2021/01/18 10:43:31;;;;;;;128.80;65.70;;;;;;;-7.52;65.87;99518.72;119090;1151;65127;-80
2021/01/18 10:45:59;;;;;;;137.25;69.60;;;;;;;-7.42;65.57;99516.28;118994;1150;65181;-81
2021/01/18 10:48:30;;;;;;;131.55;68.30;;;;;;;-7.41;65.15;99516.28;119270;1150;65551;-81
2021/01/18 10:51:02;;;;;;;122.90;61.60;;;;;;;-7.38;64.24;99515.45;119285;1151;65035;-80
2021/01/18 10:53:30;;;;;;;124.10;60.10;;;;;;;-7.39;64.43;99516.31;119299;1150;65277;-81
2021/01/18 10:56:15;;;;;;;134.93;68.53;;;;;;;-7.36;64.97;99508.58;119016;1150;65575;-80
2021/01/18 10:58:43;;;;;;;108.07;55.93;;;;;;;-7.25;64.76;99511.30;118894;1150;65104;-79
2021/01/18 11:01:12;;;;;;;120.90;58.53;;;;;;;-7.23;64.59;99510.48;118868;1150;65149;-81
2021/01/18 11:03:43;;;;;;;112.15;56.75;;;;;;;-7.19;65.16;99506.20;119318;1150;65104;-80
2021/01/18 11:06:18;;;;;;;120.87;61.83;;;;;;;-7.10;65.06;99512.37;118788;1150;65146;-80
2021/01/18 11:08:50;;;;;;;118.37;60.13;;;;;;;-6.97;65.36;99509.94;119081;1150;65127;-81
2021/01/18 11:11:22;;;;;;;129.77;63.30;;;;;;;-6.86;64.85;99506.59;119132;1150;65194;-80
2021/01/18 11:13:58;;;;;;;130.57;67.47;;;;;;;-6.68;64.83;99502.48;119421;1151;65201;-81
2021/01/18 11:16:24;;;;;;;123.67;62.33;;;;;;;-6.61;65.64;99496.48;119264;1150;65201;-80
2021/01/18 11:18:51;;;;;;;126.73;65.50;;;;;;;-6.49;65.15;99494.02;119274;1150;65162;-81
2021/01/18 11:21:26;;;;;;;128.27;63.70;;;;;;;-6.34;65.31;99493.30;119068;1150;65233;-80
2021/01/18 11:23:56;;;;;;;123.97;62.50;;;;;;;-6.21;64.97;99484.77;119317;1150;65114;-80